Terminal Aerodrome Forecast
Issued by NWS

Home | Current Version | Previous Version | Text Only | Print | Product List | Glossary On
Versions: 1 2 3 4 5 6 7 8 9 10 11 12 13 14
000
FTUS46 KLOX 310500 RRA
TAFLGB
TAF
KLGB 310540Z 3106/0106 VRB03KT P6SM BKN150
     FM310900 VRB03KT P6SM BKN020 BKN120
     FM311800 VRB03KT P6SM SCT025 BKN100
     FM312100 21007KT P6SM SCT030 SCT250
     FM312300 28007KT P6SM SCT250
     FM010400 VRB03KT P6SM SKC=

USA.gov is the U.S. government's official web portal to all federal, state and local government web resources and services.